Time;durP1;ratioP1;P1;durP2;ratioP2;P2;SDS_P1;SDS_P2;PMS_P1;PMS_P2;Temp;Humidity;BMP_temperature;BMP_pressure;BME280_temperature;BME280_humidity;BME280_pressure;Samples;Min_cycle;Max_cycle;Signal;HPM_P1;HPM_P2
2023/03/01 00:02:12;;;;;;;6.23;4.47;;;;;;;7.35;100.00;95092.91;5112931;28;20192;-84
2023/03/01 00:04:39;;;;;;;6.03;4.50;;;;;;;7.42;100.00;95103.28;5113581;28;20718;-84
2023/03/01 00:07:08;;;;;;;6.60;4.40;;;;;;;7.26;100.00;95081.09;5112434;28;20684;-85
2023/03/01 00:09:36;;;;;;;8.23;5.00;;;;;;;7.13;100.00;95068.06;5112831;28;20551;-85
2023/03/01 00:12:03;;;;;;;10.63;7.97;;;;;;;7.16;100.00;95078.03;5113279;28;20191;-85
2023/03/01 00:14:30;;;;;;;37.20;25.60;;;;;;;7.19;100.00;95098.34;5113182;28;20205;-84
2023/03/01 00:17:12;;;;;;;51.00;35.67;;;;;;;6.84;100.00;95042.34;5113291;28;20207;-84
2023/03/01 00:22:30;;;;;;;46.50;32.93;;;;;;;7.16;100.00;95085.78;5097907;28;20223;-84
2023/03/01 00:25:03;;;;;;;42.03;29.90;;;;;;;7.13;100.00;95069.88;5113386;28;20257;-86
2023/03/01 00:27:30;;;;;;;31.53;23.57;;;;;;;7.12;100.00;95071.66;5112458;28;20546;-85
2023/03/01 00:29:58;;;;;;;29.00;21.07;;;;;;;7.15;100.00;95067.88;5113885;28;20192;-85
2023/03/01 00:35:23;;;;;;;15.90;11.53;;;;;;;6.82;100.00;95018.50;5092887;28;20267;-86
2023/03/01 00:37:57;;;;;;;14.17;10.30;;;;;;;7.07;100.00;95055.09;5113782;28;20212;-86
2023/03/01 00:40:25;;;;;;;12.83;10.03;;;;;;;6.75;100.00;95031.34;5113672;28;20662;-86
2023/03/01 00:42:52;;;;;;;12.50;9.47;;;;;;;6.89;100.00;95050.38;5113123;28;20189;-86
2023/03/01 00:45:20;;;;;;;9.30;7.17;;;;;;;6.75;100.00;95036.53;5112476;28;20231;-86
2023/03/01 00:47:49;;;;;;;10.43;6.63;;;;;;;6.94;100.00;95042.06;5117197;28;20224;-86
2023/03/01 00:50:16;;;;;;;8.30;5.77;;;;;;;6.81;100.00;95043.53;5117301;28;20195;-85
2023/03/01 00:52:43;;;;;;;10.63;5.70;;;;;;;6.81;100.00;95053.88;5116700;28;20188;-86
2023/03/01 00:55:12;;;;;;;8.37;5.27;;;;;;;6.84;100.00;95056.09;5116363;28;20923;-86
2023/03/01 00:57:39;;;;;;;8.57;5.20;;;;;;;6.70;100.00;95049.19;5116424;28;20216;-86
2023/03/01 01:00:09;;;;;;;7.10;4.53;;;;;;;6.79;100.00;95050.69;5115812;28;20207;-86
2023/03/01 01:02:37;;;;;;;6.40;4.37;;;;;;;6.51;100.00;95002.53;5116098;28;20195;-86
2023/03/01 01:05:06;;;;;;;5.17;3.90;;;;;;;6.74;100.00;95034.94;5115794;28;20822;-85
2023/03/01 01:07:33;;;;;;;6.03;3.77;;;;;;;6.85;100.00;95062.84;5115645;28;20192;-85
2023/03/01 01:10:00;;;;;;;4.73;3.83;;;;;;;6.68;100.00;95060.69;5115804;28;20199;-85
2023/03/01 01:12:29;;;;;;;6.40;3.90;;;;;;;6.68;100.00;95058.91;5115581;28;20196;-85
2023/03/01 01:14:56;;;;;;;4.53;3.70;;;;;;;6.65;100.00;95053.31;5115542;28;20249;-85
2023/03/01 01:17:22;;;;;;;4.57;3.40;;;;;;;6.66;100.00;95047.97;5116167;28;20200;-86
2023/03/01 01:19:49;;;;;;;3.90;3.40;;;;;;;6.66;100.00;95050.56;5115009;28;20718;-86
2023/03/01 01:22:16;;;;;;;3.57;3.27;;;;;;;6.49;100.00;95040.66;5122008;27;20211;-85
2023/03/01 01:24:43;;;;;;;4.53;3.40;;;;;;;6.41;100.00;95033.81;5136458;27;20214;-85
2023/03/01 01:27:10;;;;;;;3.67;3.10;;;;;;;6.54;100.00;95046.06;5136465;27;20223;-86
2023/03/01 01:29:39;;;;;;;3.30;3.00;;;;;;;6.58;100.00;95047.31;5136008;27;20183;-86
2023/03/01 01:32:06;;;;;;;6.70;3.10;;;;;;;6.45;100.00;95050.53;5136226;27;20192;-86
2023/03/01 01:34:33;;;;;;;3.27;2.97;;;;;;;6.36;100.00;95014.69;5136191;27;20199;-86
2023/03/01 01:37:02;;;;;;;3.10;2.60;;;;;;;6.52;100.00;95043.63;5136066;27;20569;-86
2023/03/01 01:39:29;;;;;;;2.80;2.60;;;;;;;6.39;100.00;95022.88;5136613;27;20319;-85
2023/03/01 01:41:56;;;;;;;3.00;2.50;;;;;;;6.52;100.00;95066.09;5136308;27;20649;-86
2023/03/01 01:44:25;;;;;;;2.93;2.63;;;;;;;6.32;100.00;95039.28;5136238;27;20226;-85
2023/03/01 01:46:56;;;;;;;3.10;2.67;;;;;;;6.35;100.00;95044.84;5136170;27;20188;-86
2023/03/01 01:49:31;;;;;;;3.40;3.10;;;;;;;6.39;100.00;95056.44;5136107;27;20196;-86
2023/03/01 01:52:06;;;;;;;3.67;3.00;;;;;;;6.46;100.00;95061.66;5135696;27;20263;-86
2023/03/01 01:54:41;;;;;;;3.83;2.80;;;;;;;6.42;100.00;95053.47;5121251;27;20207;-86
2023/03/01 01:57:13;;;;;;;3.17;2.63;;;;;;;6.39;100.00;95045.28;5114710;28;20172;-86
2023/03/01 01:59:44;;;;;;;2.60;2.40;;;;;;;6.41;100.00;95061.38;5114172;28;20647;-86
2023/03/01 02:02:13;;;;;;;2.90;2.60;;;;;;;6.38;100.00;95049.66;5114320;28;20192;-86
2023/03/01 02:04:41;;;;;;;2.83;2.63;;;;;;;6.51;100.00;95052.38;5114684;28;20219;-86
2023/03/01 02:07:15;;;;;;;2.60;2.40;;;;;;;6.44;100.00;95043.75;5114748;28;20191;-86
2023/03/01 02:09:45;;;;;;;2.57;2.37;;;;;;;6.51;100.00;95030.94;5114867;28;20608;-85
2023/03/01 02:12:12;;;;;;;2.87;2.33;;;;;;;6.58;100.00;95024.06;5115154;28;20619;-86
2023/03/01 02:14:39;;;;;;;2.50;2.30;;;;;;;6.46;100.00;95022.94;5114914;28;20199;-85
2023/03/01 02:17:05;;;;;;;2.50;2.30;;;;;;;6.46;100.00;95023.75;5114395;28;20708;-86
2023/03/01 02:19:45;;;;;;;2.40;2.20;;;;;;;6.43;100.00;95013.78;5114180;28;20180;-86
2023/03/01 02:22:21;;;;;;;3.63;2.17;;;;;;;6.56;100.00;95026.81;5114320;28;20199;-86
2023/03/01 02:24:58;;;;;;;2.40;2.20;;;;;;;6.47;100.00;95025.31;5114430;28;20302;-86
2023/03/01 02:27:34;;;;;;;2.50;2.30;;;;;;;6.53;100.00;95023.78;5114530;28;20367;-86
2023/03/01 02:30:02;;;;;;;2.73;2.37;;;;;;;6.37;100.00;95004.19;5114321;28;20260;-86
2023/03/01 02:32:29;;;;;;;2.70;2.20;;;;;;;6.52;100.00;95033.31;5113947;28;20630;-86
2023/03/01 02:34:57;;;;;;;2.57;2.20;;;;;;;6.49;100.00;95045.81;5114683;28;20192;-86
2023/03/01 02:37:27;;;;;;;4.10;2.70;;;;;;;6.40;100.00;95021.91;5118966;28;20211;-86
2023/03/01 02:39:59;;;;;;;3.83;2.57;;;;;;;6.55;100.00;95048.44;5120679;28;20237;-86
2023/03/01 02:42:31;;;;;;;2.80;2.60;;;;;;;6.60;100.00;95040.97;5114402;28;20191;-86
2023/03/01 02:44:58;;;;;;;4.03;3.60;;;;;;;6.59;100.00;95044.53;5113166;28;20204;-85
2023/03/01 02:47:27;;;;;;;3.43;2.90;;;;;;;6.62;100.00;95043.34;5113783;28;20207;-85
2023/03/01 02:49:53;;;;;;;4.00;2.83;;;;;;;6.62;100.00;95036.41;5113340;28;20200;-85
2023/03/01 02:52:46;;;;;;;3.10;2.80;;;;;;;6.60;100.00;95042.75;5113237;28;20200;-85
2023/03/01 02:55:16;;;;;;;3.17;2.87;;;;;;;6.48;100.00;95029.53;5093130;28;20181;-85
2023/03/01 02:57:46;;;;;;;3.77;3.20;;;;;;;6.55;100.00;95034.75;5092829;28;20196;-85
2023/03/01 03:00:19;;;;;;;3.50;3.20;;;;;;;6.55;100.00;95032.94;5092766;28;20610;-85
2023/03/01 03:02:48;;;;;;;3.13;2.83;;;;;;;6.40;100.00;95027.06;5092370;28;20653;-85
2023/03/01 03:05:17;;;;;;;3.60;2.90;;;;;;;6.56;100.00;95046.66;5092696;28;20255;-85
2023/03/01 03:07:46;;;;;;;3.67;3.07;;;;;;;6.62;100.00;95033.81;5092364;28;20675;-85
2023/03/01 03:10:16;;;;;;;3.50;3.20;;;;;;;6.67;100.00;95030.69;5092585;28;20233;-85
2023/03/01 03:12:43;;;;;;;3.70;3.17;;;;;;;6.58;100.00;95042.91;5092619;28;20192;-85
2023/03/01 03:15:12;;;;;;;4.83;3.43;;;;;;;6.58;100.00;95034.38;5092557;28;20268;-84
2023/03/01 03:17:41;;;;;;;4.10;3.40;;;;;;;6.58;100.00;95031.81;5092539;28;20260;-84
2023/03/01 03:20:18;;;;;;;5.37;3.73;;;;;;;6.60;100.00;95038.38;5092537;28;20200;-85
2023/03/01 03:22:45;;;;;;;3.50;3.20;;;;;;;6.60;100.00;95040.97;5092865;28;20326;-85
2023/03/01 03:25:12;;;;;;;3.57;3.27;;;;;;;6.73;100.00;95050.59;5092194;28;20303;-84
2023/03/01 03:27:40;;;;;;;3.90;3.50;;;;;;;6.69;100.00;95047.63;5091751;28;20236;-85
2023/03/01 03:30:11;;;;;;;4.27;3.57;;;;;;;6.65;100.00;95043.78;5091846;28;20192;-85
2023/03/01 03:32:38;;;;;;;3.93;3.53;;;;;;;6.66;100.00;95053.16;5092397;28;20231;-85
2023/03/01 03:35:09;;;;;;;4.00;3.60;;;;;;;6.61;100.00;95046.94;5092505;28;20667;-84
2023/03/01 03:40:22;;;;;;;4.63;3.83;;;;;;;6.54;100.00;95052.03;5103425;28;20211;-85
2023/03/01 03:42:49;;;;;;;4.57;3.47;;;;;;;6.52;100.00;95060.94;5092822;28;20200;-84
2023/03/01 03:45:16;;;;;;;4.90;3.33;;;;;;;6.48;100.00;95060.50;5092417;28;20224;-85
2023/03/01 03:47:43;;;;;;;3.57;3.20;;;;;;;6.52;100.00;95059.13;5092714;28;20627;-85
2023/03/01 03:50:12;;;;;;;3.90;3.37;;;;;;;6.41;100.00;95049.28;5092194;28;20585;-85
2023/03/01 03:52:40;;;;;;;4.30;3.50;;;;;;;6.45;100.00;95054.91;5092745;28;20193;-85
2023/03/01 03:55:10;;;;;;;3.93;3.30;;;;;;;6.51;100.00;95065.31;5111964;28;20286;-85
2023/03/01 03:57:37;;;;;;;3.73;3.30;;;;;;;6.40;100.00;95044.31;5112108;28;20195;-85
2023/03/01 04:00:23;;;;;;;5.43;3.20;;;;;;;6.41;100.00;95044.13;5112547;28;20206;-85
2023/03/01 04:02:56;;;;;;;4.80;3.60;;;;;;;6.59;100.00;95054.03;5112342;28;20256;-85
2023/03/01 04:05:23;;;;;;;4.30;3.43;;;;;;;6.55;100.00;95053.59;5112588;28;20294;-84
2023/03/01 04:08:00;;;;;;;4.93;3.70;;;;;;;6.46;100.00;95053.91;5112798;28;20192;-86
2023/03/01 04:10:28;;;;;;;4.50;3.40;;;;;;;6.46;100.00;95065.06;5113098;28;20642;-86
2023/03/01 04:12:55;;;;;;;4.47;3.63;;;;;;;6.43;100.00;95062.03;5112223;28;20188;-86
2023/03/01 04:15:23;;;;;;;5.57;3.67;;;;;;;6.40;100.00;95063.19;5112638;28;20249;-86
2023/03/01 04:17:52;;;;;;;6.47;3.97;;;;;;;6.38;100.00;95061.78;5112957;28;20203;-86
2023/03/01 04:20:24;;;;;;;5.00;3.80;;;;;;;6.26;100.00;95051.13;5112799;28;20196;-86
2023/03/01 04:22:58;;;;;;;6.60;3.93;;;;;;;6.31;100.00;95056.53;5116463;28;20252;-86
2023/03/01 04:25:25;;;;;;;4.90;3.70;;;;;;;6.33;100.00;95057.16;5116989;28;20240;-85
2023/03/01 04:27:52;;;;;;;4.20;3.50;;;;;;;6.28;100.00;95060.28;5117247;28;20682;-86
2023/03/01 04:30:19;;;;;;;5.00;3.07;;;;;;;6.21;100.00;95056.81;5119155;28;20194;-86
2023/03/01 04:32:47;;;;;;;4.40;3.60;;;;;;;6.05;100.00;95038.16;5118296;28;20249;-86
2023/03/01 04:35:13;;;;;;;5.97;3.43;;;;;;;6.18;100.00;95057.19;5118100;28;20215;-86
2023/03/01 04:37:41;;;;;;;3.87;3.33;;;;;;;6.19;100.00;95052.81;5116376;28;20692;-86
2023/03/01 04:40:16;;;;;;;4.53;3.80;;;;;;;6.26;100.00;95051.91;5119929;27;20234;-86
2023/03/01 04:42:43;;;;;;;3.73;3.10;;;;;;;6.28;100.00;95049.97;5134308;27;20210;-85
2023/03/01 04:45:12;;;;;;;4.43;3.73;;;;;;;6.09;100.00;95044.59;5115928;27;20253;-86
2023/03/01 04:47:40;;;;;;;4.00;3.40;;;;;;;6.00;100.00;95051.59;5116416;28;20192;-86
2023/03/01 04:50:08;;;;;;;4.20;3.47;;;;;;;6.01;100.00;95055.78;5116076;28;20277;-86
2023/03/01 04:52:36;;;;;;;5.70;3.60;;;;;;;6.01;100.00;95039.50;5115675;28;20204;-86
2023/03/01 04:55:03;;;;;;;4.50;3.27;;;;;;;6.06;100.00;95042.34;5116470;28;20595;-85
2023/03/01 04:57:31;;;;;;;4.40;3.60;;;;;;;6.04;100.00;95045.09;5115887;28;20689;-86
2023/03/01 04:59:58;;;;;;;4.43;3.17;;;;;;;6.03;100.00;95047.88;5115838;28;20266;-87
2023/03/01 05:02:25;;;;;;;3.63;3.07;;;;;;;5.98;100.00;95050.16;5116335;28;20213;-86
2023/03/01 05:04:57;;;;;;;4.53;3.67;;;;;;;5.90;100.00;95022.72;5115609;28;20184;-86
2023/03/01 05:07:24;;;;;;;6.23;3.90;;;;;;;6.03;100.00;95053.03;5116149;28;20199;-86
2023/03/01 05:09:51;;;;;;;7.00;3.77;;;;;;;6.04;100.00;95050.25;5115375;28;20294;-86
2023/03/01 05:12:18;;;;;;;4.97;3.67;;;;;;;6.07;100.00;95049.09;5115552;28;20257;-86
2023/03/01 05:14:46;;;;;;;5.10;3.63;;;;;;;6.12;100.00;95055.31;5115547;28;20206;-86
2023/03/01 05:17:13;;;;;;;6.53;3.37;;;;;;;6.21;100.00;95056.00;5115853;28;20206;-86
2023/03/01 05:19:42;;;;;;;5.00;3.93;;;;;;;6.24;100.00;95060.81;5115632;28;20210;-87
2023/03/01 05:22:09;;;;;;;5.43;3.97;;;;;;;6.23;100.00;95059.22;5115751;28;20227;-86
2023/03/01 05:24:38;;;;;;;6.70;4.17;;;;;;;6.32;100.00;95059.94;5115054;28;20730;-84
2023/03/01 05:27:06;;;;;;;6.43;4.30;;;;;;;6.22;100.00;95053.25;5114666;28;20297;-84
2023/03/01 05:29:34;;;;;;;6.60;4.80;;;;;;;6.27;100.00;95048.34;5115230;28;20184;-85
2023/03/01 05:32:04;;;;;;;5.23;4.07;;;;;;;6.40;100.00;95054.66;5115530;28;20316;-84
2023/03/01 05:34:33;;;;;;;8.37;4.07;;;;;;;6.40;100.00;95052.06;5115004;28;20188;-84
2023/03/01 05:37:00;;;;;;;7.00;4.20;;;;;;;6.25;100.00;95050.31;5115264;28;20255;-84
2023/03/01 05:39:30;;;;;;;14.17;4.60;;;;;;;6.21;100.00;95050.84;5115686;28;20216;-84
2023/03/01 05:41:58;;;;;;;5.73;4.07;;;;;;;6.21;100.00;95053.44;5117787;28;20200;-85
2023/03/01 05:44:27;;;;;;;6.97;4.67;;;;;;;6.35;100.00;95072.47;5117128;28;20265;-84
2023/03/01 05:46:54;;;;;;;9.53;4.80;;;;;;;6.36;100.00;95054.19;5115794;28;20248;-84
2023/03/01 05:49:24;;;;;;;7.10;5.17;;;;;;;6.51;100.00;95051.59;5115726;28;20196;-86
2023/03/01 05:51:53;;;;;;;7.50;5.07;;;;;;;6.35;100.00;95062.91;5115053;28;20641;-87
2023/03/01 05:54:20;;;;;;;10.50;5.77;;;;;;;6.26;100.00;95077.72;5115370;28;20215;-87
2023/03/01 05:56:47;;;;;;;6.73;4.97;;;;;;;6.28;100.00;95072.38;5115174;28;20190;-86
2023/03/01 05:59:16;;;;;;;9.87;4.97;;;;;;;6.15;100.00;95062.69;5115037;28;20184;-85
2023/03/01 06:01:43;;;;;;;7.47;5.33;;;;;;;6.19;100.00;95076.03;5116114;28;20659;-84
2023/03/01 06:04:10;;;;;;;7.60;4.73;;;;;;;6.14;100.00;95073.22;5116474;28;20216;-85
2023/03/01 06:06:39;;;;;;;7.50;5.13;;;;;;;6.22;100.00;95083.44;5116337;28;20216;-87
2023/03/01 06:09:08;;;;;;;8.00;4.70;;;;;;;6.23;100.00;95090.19;5115429;28;20199;-86
2023/03/01 06:11:35;;;;;;;13.33;4.63;;;;;;;6.14;100.00;95091.28;5114389;28;20214;-86
2023/03/01 06:14:12;;;;;;;15.87;5.33;;;;;;;6.09;100.00;95078.91;5114731;28;20181;-86
2023/03/01 06:16:39;;;;;;;9.97;4.30;;;;;;;5.98;100.00;95056.13;5114636;28;20176;-85
2023/03/01 06:19:06;;;;;;;9.40;4.70;;;;;;;6.22;100.00;95101.50;5114634;28;20200;-86
2023/03/01 06:21:33;;;;;;;6.27;4.17;;;;;;;6.19;100.00;95088.94;5114533;28;20206;-85
2023/03/01 06:24:01;;;;;;;6.97;4.30;;;;;;;6.13;100.00;95087.09;5114278;28;20699;-86
2023/03/01 06:26:28;;;;;;;9.40;4.57;;;;;;;6.10;100.00;95095.19;5114398;28;20302;-86
2023/03/01 06:28:55;;;;;;;6.70;3.80;;;;;;;6.08;100.00;95097.94;5115405;28;20198;-87
2023/03/01 06:31:22;;;;;;;7.20;4.20;;;;;;;5.98;100.00;95091.44;5114504;28;20203;-86
2023/03/01 06:33:49;;;;;;;5.40;4.03;;;;;;;6.11;100.00;95097.59;5114280;28;20290;-85
2023/03/01 06:36:18;;;;;;;9.27;5.10;;;;;;;6.00;100.00;95087.69;5113912;28;20196;-86
2023/03/01 06:38:45;;;;;;;7.43;5.13;;;;;;;6.00;100.00;95092.09;5114015;28;20191;-85
2023/03/01 06:41:13;;;;;;;9.23;4.40;;;;;;;6.01;100.00;95091.88;5114662;28;20203;-86
2023/03/01 06:43:40;;;;;;;7.00;4.40;;;;;;;6.11;100.00;95107.91;5113641;28;20180;-86
2023/03/01 06:46:07;;;;;;;4.80;3.80;;;;;;;6.12;100.00;95101.75;5114249;28;20307;-86
2023/03/01 06:48:35;;;;;;;7.57;3.90;;;;;;;6.23;100.00;95101.28;5114165;28;20191;-86
2023/03/01 06:51:02;;;;;;;4.73;3.70;;;;;;;6.17;100.00;95102.03;5114089;28;20202;-86
2023/03/01 06:53:29;;;;;;;6.87;4.00;;;;;;;6.21;100.00;95108.44;5114105;28;20192;-87
2023/03/01 06:55:56;;;;;;;6.77;3.90;;;;;;;6.20;100.00;95106.81;5114657;28;20196;-85
2023/03/01 06:58:25;;;;;;;4.10;3.47;;;;;;;6.09;100.00;95093.59;5114660;28;20249;-85
2023/03/01 07:00:52;;;;;;;6.77;3.70;;;;;;;6.17;100.00;95104.63;5114029;28;20199;-87
2023/03/01 07:03:20;;;;;;;6.07;4.30;;;;;;;6.08;100.00;95084.25;5114051;28;20209;-85
2023/03/01 07:05:49;;;;;;;6.10;3.67;;;;;;;6.31;100.00;95104.78;5114275;28;20219;-86
2023/03/01 07:08:16;;;;;;;7.40;3.70;;;;;;;6.22;100.00;95099.72;5114123;28;20227;-86
2023/03/01 07:10:43;;;;;;;5.37;3.77;;;;;;;6.28;100.00;95099.00;5114118;28;20196;-86
2023/03/01 07:13:10;;;;;;;5.60;3.57;;;;;;;6.10;100.00;95051.31;5114232;28;20195;-85
2023/03/01 07:15:38;;;;;;;5.23;3.80;;;;;;;6.34;100.00;95097.47;5114323;28;20196;-85
2023/03/01 07:18:05;;;;;;;5.53;3.70;;;;;;;6.22;100.00;95083.44;5115079;28;20214;-87
2023/03/01 07:20:32;;;;;;;9.13;3.87;;;;;;;6.10;100.00;95061.63;5114449;28;20274;-87
2023/03/01 07:22:58;;;;;;;5.10;3.30;;;;;;;6.30;100.00;95085.91;5115867;28;20192;-86
2023/03/01 07:25:25;;;;;;;4.97;3.60;;;;;;;6.46;100.00;95090.88;5115522;28;20188;-86
2023/03/01 07:27:53;;;;;;;6.57;3.87;;;;;;;6.42;100.00;95076.72;5113538;28;20231;-86
2023/03/01 07:30:20;;;;;;;4.70;3.50;;;;;;;6.59;100.00;95097.94;5113527;28;20252;-86
2023/03/01 07:32:48;;;;;;;8.10;3.80;;;;;;;6.69;100.00;95086.34;5113513;28;20203;-85
2023/03/01 07:35:15;;;;;;;5.37;3.70;;;;;;;6.69;100.00;95088.13;5113341;28;20202;-85
2023/03/01 07:37:42;;;;;;;7.03;3.73;;;;;;;6.73;100.00;95094.50;5112938;28;20219;-87
2023/03/01 07:40:11;;;;;;;5.63;3.97;;;;;;;6.77;100.00;95086.22;5113577;28;20192;-85
2023/03/01 07:42:38;;;;;;;10.60;3.90;;;;;;;6.75;100.00;95077.84;5112946;28;20279;-85
2023/03/01 07:45:06;;;;;;;5.27;3.73;;;;;;;6.85;100.00;95080.13;5112962;28;20347;-84
2023/03/01 07:47:33;;;;;;;6.50;3.57;;;;;;;6.95;100.00;95088.38;5111809;28;20212;-85
2023/03/01 07:50:02;;;;;;;6.33;3.50;;;;;;;6.84;100.00;95092.25;5112807;28;20199;-86
2023/03/01 07:52:30;;;;;;;7.73;4.17;;;;;;;6.71;100.00;95089.53;5113187;28;20199;-85
2023/03/01 07:54:57;;;;;;;7.87;3.93;;;;;;;6.63;100.00;95063.84;5113413;28;20264;-86
2023/03/01 07:57:24;;;;;;;6.47;3.53;;;;;;;6.87;100.00;95077.38;5116163;28;20185;-86
2023/03/01 07:59:51;;;;;;;6.20;3.80;;;;;;;6.92;100.00;95072.47;5117295;28;20279;-86
2023/03/01 08:02:18;;;;;;;5.60;4.00;;;;;;;7.07;100.00;95073.97;5117345;28;20196;-86
2023/03/01 08:04:45;;;;;;;5.57;4.10;;;;;;;6.90;100.00;95051.19;5117225;28;20283;-86
2023/03/01 08:07:13;;;;;;;5.83;3.90;;;;;;;7.14;100.00;95079.19;5116954;28;20219;-85
2023/03/01 08:09:40;;;;;;;6.67;3.83;;;;;;;7.28;100.00;95075.75;5116745;28;20199;-86
2023/03/01 08:12:07;;;;;;;5.37;3.37;;;;;;;7.37;100.00;95078.00;5117010;28;20200;-85
2023/03/01 08:14:34;;;;;;;6.00;3.50;;;;;;;7.35;100.00;95077.41;5116701;28;20204;-85
2023/03/01 08:17:02;;;;;;;5.67;3.97;;;;;;;7.30;100.00;95060.84;5116465;28;20659;-84
2023/03/01 08:19:29;;;;;;;7.47;4.10;;;;;;;7.49;100.00;95080.88;5116370;28;20253;-84
2023/03/01 08:21:58;;;;;;;9.30;3.93;;;;;;;7.47;100.00;95064.75;5116646;28;20211;-85
2023/03/01 08:24:26;;;;;;;9.03;3.90;;;;;;;7.56;100.00;95065.41;5116497;28;20657;-86
2023/03/01 08:26:53;;;;;;;5.40;3.40;;;;;;;7.45;100.00;95071.88;5115961;28;20580;-85
2023/03/01 08:29:20;;;;;;;6.23;3.60;;;;;;;7.41;100.00;95081.03;5117018;28;20204;-86
2023/03/01 08:31:48;;;;;;;20.00;4.23;;;;;;;7.46;100.00;95064.94;5116272;28;20253;-85
2023/03/01 08:34:17;;;;;;;7.33;4.43;;;;;;;7.69;100.00;95078.41;5116048;28;20662;-85
2023/03/01 08:36:46;;;;;;;4.37;3.73;;;;;;;7.72;100.00;95072.88;5116512;28;20193;-86
2023/03/01 08:39:15;;;;;;;6.87;3.80;;;;;;;7.83;100.00;95064.56;5116895;28;20624;-86
2023/03/01 08:41:44;;;;;;;9.17;4.83;;;;;;;7.90;100.00;95070.59;5116778;28;20204;-86
2023/03/01 08:44:13;;;;;;;5.70;3.90;;;;;;;7.89;100.00;95069.00;5116133;28;20199;-86
2023/03/01 08:46:41;;;;;;;6.93;4.80;;;;;;;8.02;100.00;95070.84;5117283;28;20226;-85
2023/03/01 08:49:10;;;;;;;9.17;4.70;;;;;;;7.98;100.00;95068.66;5117417;28;20627;-86
2023/03/01 08:51:37;;;;;;;7.87;5.40;;;;;;;8.02;100.00;95065.69;5131213;28;20196;-86
2023/03/01 08:54:05;;;;;;;6.97;4.70;;;;;;;8.11;100.00;95057.53;5136064;28;20210;-86
2023/03/01 08:56:32;;;;;;;7.97;4.67;;;;;;;8.29;99.96;95078.56;5125078;28;20192;-86
2023/03/01 08:59:01;;;;;;;6.57;5.50;;;;;;;8.31;99.94;95081.75;5116693;28;20283;-85
2023/03/01 09:01:28;;;;;;;9.73;6.10;;;;;;;8.34;99.29;95075.41;5116292;28;20204;-86
2023/03/01 09:03:54;;;;;;;5.63;4.90;;;;;;;8.40;97.89;95075.41;5116408;28;20191;-86
2023/03/01 09:06:21;;;;;;;5.90;4.50;;;;;;;8.34;97.81;95044.34;5116878;28;20220;-86
2023/03/01 09:08:50;;;;;;;6.30;4.37;;;;;;;8.63;96.62;95072.50;5115791;28;20188;-86
2023/03/01 09:11:19;;;;;;;9.23;4.33;;;;;;;8.61;95.96;95074.50;5115770;28;20210;-86
2023/03/01 09:13:46;;;;;;;4.23;3.70;;;;;;;8.68;95.41;95072.75;5115945;28;20663;-85
2023/03/01 09:16:20;;;;;;;8.07;4.00;;;;;;;8.63;95.26;95079.50;5116034;28;20188;-86
2023/03/01 09:18:51;;;;;;;7.17;3.97;;;;;;;8.49;95.44;95071.66;5115711;28;20180;-86
2023/03/01 09:21:20;;;;;;;4.37;3.47;;;;;;;8.50;95.72;95052.56;5116152;28;20199;-86
2023/03/01 09:23:48;;;;;;;4.00;3.60;;;;;;;8.46;95.22;95066.06;5115848;28;20261;-86
2023/03/01 09:26:18;;;;;;;7.13;3.90;;;;;;;8.64;94.97;95074.09;5115443;28;20211;-86
2023/03/01 09:28:46;;;;;;;5.23;3.70;;;;;;;8.60;94.88;95075.47;5115611;28;20196;-86
2023/03/01 09:31:16;;;;;;;7.37;3.20;;;;;;;8.48;95.10;95053.75;5115631;28;20276;-86
2023/03/01 09:33:43;;;;;;;4.33;3.70;;;;;;;8.48;94.92;95066.69;5115925;28;20184;-84
2023/03/01 09:36:13;;;;;;;4.93;3.67;;;;;;;8.63;95.70;95072.50;5115876;28;20204;-86
2023/03/01 09:38:40;;;;;;;5.00;4.17;;;;;;;8.73;95.41;95072.94;5116037;28;20200;-85
2023/03/01 09:41:12;;;;;;;4.90;3.23;;;;;;;8.70;94.30;95055.19;5115745;28;20192;-85
2023/03/01 09:43:47;;;;;;;3.33;3.00;;;;;;;8.78;94.23;95062.78;5114726;28;20203;-85
2023/03/01 09:46:16;;;;;;;8.47;3.47;;;;;;;8.65;94.59;95047.22;5115182;28;20199;-84
2023/03/01 09:48:49;;;;;;;6.90;3.30;;;;;;;8.74;95.29;95064.19;5115075;28;20242;-85
2023/03/01 09:51:20;;;;;;;4.27;3.20;;;;;;;8.87;95.40;95069.38;5115003;28;20594;-86
2023/03/01 09:53:47;;;;;;;5.53;3.60;;;;;;;8.92;95.12;95050.63;5115180;28;20196;-85
2023/03/01 09:56:21;;;;;;;12.47;3.60;;;;;;;8.95;95.11;95050.25;5114942;28;20196;-86
2023/03/01 09:58:56;;;;;;;5.23;3.20;;;;;;;8.95;94.52;95043.25;5115245;28;20233;-86
2023/03/01 10:01:32;;;;;;;5.70;3.00;;;;;;;9.10;94.17;95045.66;5115107;28;20188;-86
2023/03/01 10:04:21;;;;;;;5.27;3.40;;;;;;;9.02;93.42;95038.91;5115156;28;20585;-86
2023/03/01 10:06:59;;;;;;;4.90;3.20;;;;;;;9.11;92.92;95045.50;5115510;28;20674;-86
2023/03/01 10:09:27;;;;;;;6.13;3.43;;;;;;;9.24;93.89;95041.28;5114802;28;20701;-85
2023/03/01 10:11:57;;;;;;;6.37;3.10;;;;;;;9.29;92.33;95051.88;5114685;28;20665;-85
2023/03/01 10:14:34;;;;;;;3.70;2.93;;;;;;;9.14;93.13;95010.59;5114990;28;20566;-85
2023/03/01 10:17:05;;;;;;;3.23;2.90;;;;;;;9.46;92.40;95045.28;5114705;28;20179;-84
2023/03/01 10:19:37;;;;;;;8.30;3.07;;;;;;;9.32;92.51;95030.72;5114129;28;20214;-84
2023/03/01 10:22:12;;;;;;;9.07;3.33;;;;;;;9.36;91.84;95024.13;5115146;28;20196;-85
2023/03/01 10:24:39;;;;;;;3.97;3.10;;;;;;;9.37;91.71;95038.69;5114822;28;20203;-85
2023/03/01 10:27:11;;;;;;;6.10;3.20;;;;;;;9.23;92.05;95006.00;5113977;28;20738;-84
2023/03/01 10:29:44;;;;;;;5.80;3.20;;;;;;;9.48;92.47;95035.50;5114231;28;20199;-85
2023/03/01 10:32:13;;;;;;;6.33;3.40;;;;;;;9.48;91.69;95010.34;5114221;28;20275;-85
2023/03/01 10:34:40;;;;;;;3.83;3.00;;;;;;;9.77;91.40;95029.84;5113938;28;20646;-85
2023/03/01 10:37:13;;;;;;;5.47;3.40;;;;;;;10.04;90.45;95020.97;5113872;28;20200;-84
2023/03/01 10:39:56;;;;;;;6.67;3.70;;;;;;;10.25;89.38;95018.13;5113763;28;20203;-85
2023/03/01 10:42:29;;;;;;;3.80;3.10;;;;;;;10.35;88.36;95028.09;5113132;28;20249;-85
2023/03/01 10:44:56;;;;;;;4.47;3.13;;;;;;;10.25;88.05;95015.53;5114643;28;20203;-85
2023/03/01 10:47:27;;;;;;;5.77;3.33;;;;;;;10.13;87.70;95000.78;5114205;28;20215;-86
2023/03/01 10:49:59;;;;;;;5.20;3.30;;;;;;;9.98;88.15;95021.81;5113783;28;20192;-86
2023/03/01 10:52:30;;;;;;;5.20;2.90;;;;;;;9.86;88.61;95013.06;5114651;28;20616;-86
2023/03/01 10:54:59;;;;;;;3.80;3.07;;;;;;;9.86;89.38;95027.84;5114229;28;20210;-86
2023/03/01 10:57:37;;;;;;;7.47;3.10;;;;;;;9.75;88.95;95013.69;5114903;28;20192;-86
2023/03/01 11:00:20;;;;;;;4.20;3.23;;;;;;;9.60;89.70;95018.31;5113946;28;20253;-86
2023/03/01 11:02:52;;;;;;;4.53;3.10;;;;;;;9.50;90.75;95012.72;5117146;28;20242;-85
2023/03/01 11:05:24;;;;;;;3.87;3.20;;;;;;;9.54;90.77;95019.91;5114479;28;20295;-85
2023/03/01 11:07:54;;;;;;;3.30;2.63;;;;;;;9.58;89.68;95013.31;5113713;28;20197;-86
2023/03/01 11:10:24;;;;;;;3.93;2.63;;;;;;;9.51;89.40;95028.09;5114031;28;20563;-85
2023/03/01 11:12:52;;;;;;;6.33;2.67;;;;;;;9.50;89.42;95021.31;5113869;28;20349;-85
2023/03/01 11:15:28;;;;;;;3.87;2.83;;;;;;;9.49;88.84;95019.75;5113802;28;20580;-85
2023/03/01 11:17:57;;;;;;;3.43;2.67;;;;;;;9.31;89.86;95022.16;5113827;28;20202;-85
2023/03/01 11:20:32;;;;;;;5.83;2.70;;;;;;;9.39;91.08;95021.13;5113805;28;20701;-86
2023/03/01 11:23:03;;;;;;;5.73;3.10;;;;;;;9.52;91.70;95015.94;5113658;28;20179;-85
2023/03/01 11:25:35;;;;;;;7.57;2.97;;;;;;;9.53;90.86;95010.53;5113986;28;20203;-84
2023/03/01 11:28:05;;;;;;;4.80;2.83;;;;;;;9.39;90.39;94980.44;5113514;28;20228;-86
2023/03/01 11:30:39;;;;;;;3.70;2.87;;;;;;;9.39;89.89;94980.44;5113809;28;20249;-86
2023/03/01 11:33:18;;;;;;;6.00;2.87;;;;;;;9.36;91.93;95013.75;5114114;28;20180;-85
2023/03/01 11:35:55;;;;;;;3.47;2.77;;;;;;;9.41;91.56;95008.75;5114076;28;20176;-86
2023/03/01 11:38:24;;;;;;;4.23;2.77;;;;;;;9.36;90.88;94985.22;5113338;28;20175;-86
2023/03/01 11:40:59;;;;;;;3.03;2.70;;;;;;;9.37;90.80;94999.78;5113704;28;20200;-86
2023/03/01 11:43:37;;;;;;;3.97;2.77;;;;;;;9.21;90.58;95002.78;5113087;28;20192;-86
2023/03/01 11:46:33;;;;;;;3.17;2.20;;;;;;;9.10;90.92;94980.84;5112811;28;20672;-86
2023/03/01 11:49:17;;;;;;;3.73;2.50;;;;;;;9.20;92.09;94981.25;5112715;28;20990;-85
2023/03/01 11:51:52;;;;;;;6.43;3.00;;;;;;;9.17;92.13;94973.09;5112927;28;20563;-85
2023/03/01 11:54:35;;;;;;;4.47;2.73;;;;;;;9.17;92.41;94973.09;5112842;28;20204;-86